Time,TemperatureF,DewpointF,PressureIn,WindDirection,WindDirectionDegrees,WindSpeedMPH,WindSpeedGustMPH,Humidity,HourlyPrecipIn,Conditions,Clouds,dailyrainin,SolarRadiationWatts/m^2,SoftwareType,DateUTC
2013-10-09 00:00:00,43.4,42.9,30.10,NNE,20,0.0,1.0,98,0.00,,---,0.15,0.00,VWS V14.01,2013-10-09 07:00:00,
2013-10-09 00:02:00,43.6,43.1,30.10,NNE,20,0.0,0.0,98,0.00,,---,0.00,0.00,VWS V14.01,2013-10-09 07:02:00,
2013-10-09 00:05:00,43.6,43.1,30.10,NNE,20,0.0,0.0,98,0.00,,---,0.00,0.00,VWS V14.01,2013-10-09 07:05:00,
2013-10-09 00:07:00,43.8,43.3,30.10,NNE,20,0.0,0.0,98,0.00,,---,0.00,0.00,VWS V14.01,2013-10-09 07:07:00,
2013-10-09 00:10:00,43.8,43.3,30.10,NNE,19,0.0,0.0,98,0.00,,---,0.00,0.00,VWS V14.01,2013-10-09 07:10:00,
2013-10-09 00:12:00,44.0,43.5,30.10,NNE,20,0.0,0.0,98,0.00,,---,0.00,0.00,VWS V14.01,2013-10-09 07:12:00,
2013-10-09 00:15:00,43.9,43.4,30.10,NNE,20,0.0,0.0,98,0.00,,---,0.00,0.00,VWS V14.01,2013-10-09 07:15:00,
2013-10-09 00:17:00,43.8,43.3,30.10,NNE,20,0.0,0.0,98,0.00,,---,0.00,0.00,VWS V14.01,2013-10-09 07:17:00,
2013-10-09 00:20:00,43.9,43.4,30.10,NNE,20,0.0,0.0,98,0.00,,---,0.00,0.00,VWS V14.01,2013-10-09 07:20:00,
2013-10-09 00:22:00,44.1,43.6,30.10,NNE,20,0.0,1.0,98,0.00,,---,0.00,0.00,VWS V14.01,2013-10-09 07:22:00,
2013-10-09 00:25:00,44.2,43.7,30.10,NNE,20,0.0,1.0,98,0.00,,---,0.00,0.00,VWS V14.01,2013-10-09 07:25:00,
2013-10-09 00:27:00,44.1,43.6,30.10,NNE,20,0.0,2.0,98,0.00,,---,0.00,0.00,VWS V14.01,2013-10-09 07:27:00,
2013-10-09 00:30:00,44.0,43.5,30.10,NNE,20,0.0,2.0,98,0.00,,---,0.00,0.00,VWS V14.01,2013-10-09 07:30:00,
2013-10-09 00:32:00,44.0,43.5,30.11,NNE,20,0.0,0.0,98,0.00,,---,0.00,0.00,VWS V14.01,2013-10-09 07:32:00,
2013-10-09 00:35:00,44.1,43.6,30.11,NNE,20,0.0,0.0,98,0.00,,---,0.00,0.00,VWS V14.01,2013-10-09 07:35:00,
2013-10-09 00:37:00,44.3,43.8,30.11,NNE,19,0.0,0.0,98,0.00,,---,0.00,0.00,VWS V14.01,2013-10-09 07:37:00,
2013-10-09 00:40:00,44.3,43.8,30.11,NNE,20,0.0,0.0,98,0.00,,---,0.00,0.00,VWS V14.01,2013-10-09 07:40:00,
2013-10-09 00:42:00,44.5,44.0,30.10,NNE,20,0.0,0.0,98,0.00,,---,0.00,0.00,VWS V14.01,2013-10-09 07:42:00,
2013-10-09 00:45:00,44.5,44.0,30.10,NNE,20,0.0,0.0,98,0.00,,---,0.00,0.00,VWS V14.01,2013-10-09 07:45:00,
2013-10-09 00:47:00,44.5,44.0,30.11,NNE,20,0.0,1.0,98,0.00,,---,0.00,0.00,VWS V14.01,2013-10-09 07:47:00,
2013-10-09 00:50:00,44.5,44.0,30.11,NNE,20,0.0,1.0,98,0.00,,---,0.00,0.00,VWS V14.01,2013-10-09 07:50:00,
2013-10-09 00:52:00,44.6,44.1,30.11,NNE,19,0.0,0.0,98,0.00,,---,0.00,0.00,VWS V14.01,2013-10-09 07:52:00,
2013-10-09 00:55:00,44.6,44.1,30.11,NNE,20,0.0,0.0,98,0.00,,---,0.00,0.00,VWS V14.01,2013-10-09 07:55:00,
2013-10-09 00:57:00,44.7,44.2,30.11,NNE,19,0.0,1.0,98,0.00,,---,0.00,0.00,VWS V14.01,2013-10-09 07:57:00,
2013-10-09 01:00:00,44.7,44.2,30.11,NNE,20,0.0,1.0,98,0.00,,---,0.00,0.00,VWS V14.01,2013-10-09 08:00:00,
2013-10-09 01:02:00,44.7,44.2,30.11,NNE,20,0.0,0.0,98,0.00,,---,0.00,0.00,VWS V14.01,2013-10-09 08:02:00,
2013-10-09 01:05:00,44.7,44.2,30.11,NNE,19,0.0,0.0,98,0.00,,---,0.00,0.00,VWS V14.01,2013-10-09 08:05:00,
2013-10-09 01:07:00,44.6,44.1,30.12,NNE,19,0.0,0.0,98,0.00,,---,0.00,0.00,VWS V14.01,2013-10-09 08:07:00,
2013-10-09 01:10:00,44.5,44.0,30.11,NNE,20,2.0,2.0,98,0.00,,---,0.00,0.00,VWS V14.01,2013-10-09 08:10:00,
2013-10-09 01:12:00,44.4,43.9,30.12,NNE,19,0.0,2.0,98,0.00,,---,0.00,0.00,VWS V14.01,2013-10-09 08:12:00,
2013-10-09 01:15:00,44.4,43.9,30.12,ENE,57,0.0,2.0,98,0.00,,---,0.00,0.00,VWS V14.01,2013-10-09 08:15:00,
2013-10-09 01:17:00,44.4,43.9,30.12,NE,56,0.0,0.0,98,0.00,,---,0.00,0.00,VWS V14.01,2013-10-09 08:17:00,
2013-10-09 01:20:00,44.4,43.9,30.12,ENE,57,0.0,0.0,98,0.00,,---,0.00,0.00,VWS V14.01,2013-10-09 08:20:00,
2013-10-09 01:22:00,44.3,43.8,30.12,NE,56,0.0,1.0,98,0.00,,---,0.00,0.00,VWS V14.01,2013-10-09 08:22:00,
2013-10-09 01:25:00,44.3,43.8,30.12,NE,56,0.0,1.0,98,0.00,,---,0.00,0.00,VWS V14.01,2013-10-09 08:25:00,
2013-10-09 01:27:00,44.2,43.7,30.12,ENE,57,0.0,0.0,98,0.00,,---,0.00,0.00,VWS V14.01,2013-10-09 08:27:00,
2013-10-09 01:30:00,44.2,43.7,30.12,NE,56,0.0,0.0,98,0.00,,---,0.00,0.00,VWS V14.01,2013-10-09 08:30:00,
2013-10-09 01:32:00,44.2,43.7,30.13,ENE,57,0.0,0.0,98,0.00,,---,0.00,0.00,VWS V14.01,2013-10-09 08:32:00,
2013-10-09 01:35:00,44.2,43.7,30.12,NE,56,0.0,0.0,98,0.00,,---,0.00,0.00,VWS V14.01,2013-10-09 08:35:00,
2013-10-09 01:37:00,44.1,43.6,30.12,NE,56,0.0,0.0,98,0.00,,---,0.00,0.00,VWS V14.01,2013-10-09 08:37:00,
2013-10-09 01:40:00,44.1,43.6,30.12,NE,55,0.0,0.0,98,0.00,,---,0.00,0.00,VWS V14.01,2013-10-09 08:40:00,
2013-10-09 01:42:00,44.0,43.5,30.12,NE,56,0.0,1.0,98,0.00,,---,0.00,0.00,VWS V14.01,2013-10-09 08:42:00,
2013-10-09 01:45:00,44.0,43.5,30.12,NE,56,0.0,1.0,98,0.00,,---,0.00,0.00,VWS V14.01,2013-10-09 08:45:00,
2013-10-09 01:47:00,43.8,43.3,30.13,NE,56,0.0,0.0,98,0.00,,---,0.00,0.00,VWS V14.01,2013-10-09 08:47:00,
2013-10-09 01:50:00,43.8,43.3,30.13,ENE,57,0.0,0.0,98,0.00,,---,0.00,0.00,VWS V14.01,2013-10-09 08:50:00,
2013-10-09 01:52:00,43.8,43.5,30.13,NE,56,0.0,0.0,99,0.00,,---,0.00,0.00,VWS V14.01,2013-10-09 08:52:00,
2013-10-09 01:55:00,43.8,43.3,30.13,ENE,57,0.0,0.0,98,0.00,,---,0.00,0.00,VWS V14.01,2013-10-09 08:55:00,
2013-10-09 01:57:00,43.7,43.4,30.13,NE,55,0.0,0.0,99,0.00,,---,0.00,0.00,VWS V14.01,2013-10-09 08:57:00,
2013-10-09 02:00:00,43.7,43.4,30.13,NE,55,0.0,0.0,99,0.00,,---,0.00,0.00,VWS V14.01,2013-10-09 09:00:00,
2013-10-09 02:02:00,43.7,43.4,30.13,ENE,59,0.0,1.0,99,0.00,,---,0.00,0.00,VWS V14.01,2013-10-09 09:02:00,
2013-10-09 02:05:00,43.6,43.3,30.13,ENE,59,0.0,1.0,99,0.00,,---,0.00,0.00,VWS V14.01,2013-10-09 09:05:00,
2013-10-09 02:07:00,43.5,43.0,30.13,ENE,59,0.0,1.0,98,0.00,,---,0.00,0.00,VWS V14.01,2013-10-09 09:07:00,
2013-10-09 02:10:00,43.5,43.0,30.13,ENE,69,0.0,1.0,98,0.00,,---,0.00,0.00,VWS V14.01,2013-10-09 09:10:00,
2013-10-09 02:12:00,43.3,42.8,30.13,ENE,70,0.0,1.0,98,0.00,,---,0.00,0.00,VWS V14.01,2013-10-09 09:12:00,
2013-10-09 02:15:00,43.3,42.8,30.13,ENE,68,0.0,1.0,98,0.00,,---,0.00,0.00,VWS V14.01,2013-10-09 09:15:00,
2013-10-09 02:17:00,43.1,42.6,30.13,ENE,68,0.0,0.0,98,0.00,,---,0.00,0.00,VWS V14.01,2013-10-09 09:17:00,
2013-10-09 02:20:00,43.1,42.8,30.13,ENE,69,0.0,0.0,99,0.00,,---,0.00,0.00,VWS V14.01,2013-10-09 09:20:00,
2013-10-09 02:22:00,42.9,42.4,30.13,ENE,68,0.0,1.0,98,0.00,,---,0.00,0.00,VWS V14.01,2013-10-09 09:22:00,
2013-10-09 02:25:00,42.9,42.4,30.13,ENE,68,0.0,1.0,98,0.00,,---,0.00,0.00,VWS V14.01,2013-10-09 09:25:00,
2013-10-09 02:27:00,42.9,42.4,30.13,ENE,69,0.0,0.0,98,0.00,,---,0.00,0.00,VWS V14.01,2013-10-09 09:27:00,
2013-10-09 02:30:00,42.9,42.4,30.14,ENE,70,0.0,0.0,98,0.00,,---,0.00,0.00,VWS V14.01,2013-10-09 09:30:00,
2013-10-09 02:32:00,42.9,42.4,30.14,ENE,70,0.0,0.0,98,0.00,,---,0.00,0.00,VWS V14.01,2013-10-09 09:32:00,
2013-10-09 02:35:00,42.9,42.4,30.14,ENE,68,0.0,0.0,98,0.00,,---,0.00,0.00,VWS V14.01,2013-10-09 09:35:00,
2013-10-09 02:37:00,43.0,42.5,30.14,ENE,70,0.0,1.0,98,0.00,,---,0.00,0.00,VWS V14.01,2013-10-09 09:37:00,
2013-10-09 02:40:00,42.9,42.4,30.14,ENE,68,0.0,1.0,98,0.00,,---,0.00,0.00,VWS V14.01,2013-10-09 09:40:00,
2013-10-09 02:42:00,42.7,42.4,30.14,ENE,70,0.0,0.0,99,0.00,,---,0.00,0.00,VWS V14.01,2013-10-09 09:42:00,
2013-10-09 02:45:00,42.7,42.4,30.14,ENE,68,0.0,1.0,99,0.00,,---,0.00,0.00,VWS V14.01,2013-10-09 09:45:00,
2013-10-09 02:47:00,42.8,42.5,30.14,ENE,68,0.0,0.0,99,0.00,,---,0.00,0.00,VWS V14.01,2013-10-09 09:47:00,
2013-10-09 02:50:00,42.8,42.5,30.14,ENE,70,0.0,0.0,99,0.00,,---,0.00,0.00,VWS V14.01,2013-10-09 09:50:00,
2013-10-09 02:52:00,42.9,42.6,30.14,ENE,69,0.0,0.0,99,0.00,,---,0.00,0.00,VWS V14.01,2013-10-09 09:52:00,
2013-10-09 02:55:00,42.9,42.6,30.14,ENE,68,0.0,0.0,99,0.00,,---,0.00,0.00,VWS V14.01,2013-10-09 09:55:00,
2013-10-09 02:57:00,43.0,42.7,30.14,ENE,68,0.0,0.0,99,0.00,,---,0.00,0.00,VWS V14.01,2013-10-09 09:57:00,
2013-10-09 03:00:00,43.0,42.7,30.13,ENE,69,0.0,0.0,99,0.00,,---,0.00,0.00,VWS V14.01,2013-10-09 10:00:00,
2013-10-09 03:02:00,43.1,42.8,30.13,ENE,68,0.0,0.0,99,0.00,,---,0.00,0.00,VWS V14.01,2013-10-09 10:02:00,
2013-10-09 03:05:00,43.1,42.8,30.13,ENE,69,0.0,0.0,99,0.00,,---,0.00,0.00,VWS V14.01,2013-10-09 10:05:00,
2013-10-09 03:07:00,43.2,42.9,30.13,ENE,68,0.0,0.0,99,0.00,,---,0.00,0.00,VWS V14.01,2013-10-09 10:07:00,
2013-10-09 03:10:00,43.2,42.9,30.13,ENE,68,0.0,0.0,99,0.00,,---,0.00,0.00,VWS V14.01,2013-10-09 10:10:00,
2013-10-09 03:12:00,43.2,42.9,30.13,ENE,69,0.0,1.0,99,0.00,,---,0.00,0.00,VWS V14.01,2013-10-09 10:12:00,
2013-10-09 03:15:00,43.2,42.9,30.13,ENE,68,0.0,1.0,99,0.00,,---,0.00,0.00,VWS V14.01,2013-10-09 10:15:00,
2013-10-09 03:17:00,43.2,42.9,30.13,ENE,69,0.0,2.0,99,0.00,,---,0.00,0.00,VWS V14.01,2013-10-09 10:17:00,
2013-10-09 03:20:00,43.2,42.9,30.13,ENE,69,0.0,2.0,99,0.00,,---,0.00,0.00,VWS V14.01,2013-10-09 10:20:00,
2013-10-09 03:22:00,43.2,42.9,30.13,NE,50,0.0,2.0,99,0.00,,---,0.00,0.00,VWS V14.01,2013-10-09 10:22:00,
2013-10-09 03:25:00,43.2,42.9,30.13,NE,49,0.0,2.0,99,0.00,,---,0.00,0.00,VWS V14.01,2013-10-09 10:25:00,
2013-10-09 03:27:00,43.2,42.9,30.14,NE,51,0.0,1.0,99,0.00,,---,0.00,0.00,VWS V14.01,2013-10-09 10:27:00,
2013-10-09 03:30:00,43.2,42.9,30.14,NE,50,1.0,1.0,99,0.00,,---,0.00,0.00,VWS V14.01,2013-10-09 10:30:00,
2013-10-09 03:32:00,43.2,42.9,30.14,NE,49,0.0,1.0,99,0.00,,---,0.00,0.00,VWS V14.01,2013-10-09 10:32:00,
2013-10-09 03:35:00,43.2,42.9,30.14,NE,51,1.0,1.0,99,0.00,,---,0.00,0.00,VWS V14.01,2013-10-09 10:35:00,
2013-10-09 03:37:00,43.2,42.9,30.14,NE,51,0.0,2.0,99,0.00,,---,0.00,0.00,VWS V14.01,2013-10-09 10:37:00,
2013-10-09 03:40:00,43.3,43.0,30.14,NE,51,0.0,2.0,99,0.00,,---,0.00,0.00,VWS V14.01,2013-10-09 10:40:00,
2013-10-09 03:45:00,43.3,43.0,30.14,North,0,0.0,0.0,99,0.00,,---,0.00,0.00,VWS V14.01,2013-10-09 10:45:00,
2013-10-09 03:50:00,43.5,43.2,30.14,North,0,0.0,0.0,99,0.00,,---,0.00,0.00,VWS V14.01,2013-10-09 10:50:00,
2013-10-09 03:55:00,43.7,43.4,30.14,NE,45,0.0,1.0,99,0.00,,---,0.00,0.00,VWS V14.01,2013-10-09 10:55:00,
2013-10-09 04:00:00,43.6,43.3,30.14,NE,45,0.0,1.0,99,0.00,,---,0.00,0.00,VWS V14.01,2013-10-09 11:00:00,
2013-10-09 04:05:00,43.6,43.3,30.14,NE,45,0.0,2.0,99,0.00,,---,0.00,0.00,VWS V14.01,2013-10-09 11:05:00,
2013-10-09 04:10:00,43.6,43.3,30.14,NE,45,0.0,1.0,99,0.00,,---,0.00,0.00,VWS V14.01,2013-10-09 11:10:00,
2013-10-09 04:15:00,43.5,43.2,30.14,NE,45,0.0,1.0,99,0.00,,---,0.00,0.00,VWS V14.01,2013-10-09 11:15:00,
2013-10-09 04:20:00,43.5,43.2,30.14,NE,45,0.0,1.0,99,0.00,,---,0.00,0.00,VWS V14.01,2013-10-09 11:20:00,
2013-10-09 04:25:00,43.4,43.1,30.14,NE,45,0.0,0.0,99,0.00,,---,0.00,0.00,VWS V14.01,2013-10-09 11:25:00,
2013-10-09 04:30:00,43.5,43.2,30.14,NE,45,0.0,0.0,99,0.00,,---,0.00,0.00,VWS V14.01,2013-10-09 11:30:00,
2013-10-09 04:35:00,43.6,43.3,30.14,NE,45,0.0,0.0,99,0.00,,---,0.00,0.00,VWS V14.01,2013-10-09 11:35:00,
2013-10-09 04:40:00,43.7,43.4,30.14,NE,45,0.0,0.0,99,0.00,,---,0.00,0.00,VWS V14.01,2013-10-09 11:40:00,
2013-10-09 04:45:00,43.6,43.3,30.15,NE,45,0.0,0.0,99,0.00,,---,0.00,0.00,VWS V14.01,2013-10-09 11:45:00,
2013-10-09 04:50:00,43.6,43.3,30.15,NE,45,1.0,3.0,99,0.00,,---,0.00,0.00,VWS V14.01,2013-10-09 11:50:00,
2013-10-09 04:55:00,43.5,43.2,30.15,South,180,1.0,3.0,99,0.00,,---,0.00,0.00,VWS V14.01,2013-10-09 11:55:00,
2013-10-09 05:00:00,43.4,43.1,30.15,South,180,0.0,2.0,99,0.00,,---,0.00,0.00,VWS V14.01,2013-10-09 12:00:00,
2013-10-09 05:05:00,43.5,43.2,30.15,South,180,0.0,2.0,99,0.00,,---,0.00,0.00,VWS V14.01,2013-10-09 12:05:00,
2013-10-09 05:10:00,43.5,43.2,30.15,SE,135,0.0,1.0,99,0.00,,---,0.00,0.00,VWS V14.01,2013-10-09 12:10:00,
2013-10-09 05:15:00,43.3,43.0,30.15,SE,135,0.0,1.0,99,0.00,,---,0.00,0.00,VWS V14.01,2013-10-09 12:15:00,
2013-10-09 05:20:00,42.8,42.5,30.15,SE,135,0.0,0.0,99,0.00,,---,0.00,0.00,VWS V14.01,2013-10-09 12:20:00,
2013-10-09 05:25:00,42.7,42.4,30.15,SSE,158,1.0,4.0,99,0.00,,---,0.00,0.00,VWS V14.01,2013-10-09 12:25:00,
2013-10-09 05:30:00,42.4,42.1,30.15,South,180,2.0,5.0,99,0.00,,---,0.00,0.00,VWS V14.01,2013-10-09 12:30:00,
2013-10-09 05:35:00,42.2,41.9,30.15,South,180,0.0,1.0,99,0.00,,---,0.00,0.00,VWS V14.01,2013-10-09 12:35:00,
2013-10-09 05:40:00,42.2,41.9,30.15,South,180,0.0,1.0,99,0.00,,---,0.00,0.00,VWS V14.01,2013-10-09 12:40:00,
2013-10-09 05:45:00,42.2,41.9,30.15,South,180,0.0,1.0,99,0.00,,---,0.00,0.00,VWS V14.01,2013-10-09 12:45:00,
2013-10-09 05:50:00,42.2,41.9,30.14,South,180,0.0,1.0,99,0.00,,---,0.00,0.00,VWS V14.01,2013-10-09 12:50:00,
2013-10-09 05:55:00,42.0,41.7,30.14,South,180,0.0,0.0,99,0.00,,---,0.00,0.00,VWS V14.01,2013-10-09 12:55:00,
2013-10-09 06:00:00,42.1,41.8,30.14,South,180,0.0,0.0,99,0.00,,---,0.00,0.00,VWS V14.01,2013-10-09 13:00:00,
2013-10-09 06:05:00,42.2,41.9,30.14,South,180,0.0,0.0,99,0.00,,---,0.00,0.00,VWS V14.01,2013-10-09 13:05:00,
2013-10-09 06:10:00,42.1,41.8,30.15,SSW,202,0.0,1.0,99,0.00,,---,0.00,0.00,VWS V14.01,2013-10-09 13:10:00,
2013-10-09 06:15:00,42.1,41.8,30.15,South,180,0.0,1.0,99,0.00,,---,0.00,0.00,VWS V14.01,2013-10-09 13:15:00,
2013-10-09 06:20:00,42.1,41.8,30.15,South,180,0.0,1.0,99,0.00,,---,0.00,0.00,VWS V14.01,2013-10-09 13:20:00,
2013-10-09 06:25:00,42.3,42.0,30.15,South,180,0.0,0.0,99,0.00,,---,0.00,0.00,VWS V14.01,2013-10-09 13:25:00,
2013-10-09 06:30:00,42.3,42.0,30.15,South,180,0.0,1.0,99,0.00,,---,0.00,0.00,VWS V14.01,2013-10-09 13:30:00,
2013-10-09 06:35:00,42.3,42.0,30.15,SE,135,0.0,2.0,99,0.00,,---,0.00,0.00,VWS V14.01,2013-10-09 13:35:00,
2013-10-09 06:40:00,42.3,42.0,30.16,SE,135,0.0,2.0,99,0.00,,---,0.00,0.00,VWS V14.01,2013-10-09 13:40:00,
2013-10-09 06:45:00,42.4,42.1,30.16,SE,135,0.0,0.0,99,0.00,,---,0.00,0.00,VWS V14.01,2013-10-09 13:45:00,
2013-10-09 06:50:00,42.5,42.2,30.15,SE,135,0.0,0.0,99,0.00,,---,0.00,0.00,VWS V14.01,2013-10-09 13:50:00,
2013-10-09 06:55:00,42.4,42.1,30.16,SE,135,0.0,1.0,99,0.00,,---,0.00,0.00,VWS V14.01,2013-10-09 13:55:00,
2013-10-09 07:00:00,42.4,42.1,30.16,SE,135,0.0,1.0,99,0.00,,---,0.00,0.00,VWS V14.01,2013-10-09 14:00:00,
2013-10-09 07:05:00,42.5,42.2,30.15,SE,135,0.0,0.0,99,0.00,,---,0.00,0.00,VWS V14.01,2013-10-09 14:05:00,
2013-10-09 07:10:00,42.5,42.2,30.16,SE,135,0.0,1.0,99,0.00,,---,0.00,0.00,VWS V14.01,2013-10-09 14:10:00,
2013-10-09 07:15:00,42.7,42.4,30.16,SE,135,0.0,1.0,99,0.00,,---,0.00,0.00,VWS V14.01,2013-10-09 14:15:00,
2013-10-09 07:20:00,42.7,42.4,30.16,SE,135,0.0,1.0,99,0.00,,---,0.00,0.00,VWS V14.01,2013-10-09 14:20:00,
2013-10-09 07:25:00,42.7,42.4,30.16,SE,135,0.0,0.0,99,0.00,,---,0.00,0.00,VWS V14.01,2013-10-09 14:25:00,
2013-10-09 07:30:00,42.6,42.3,30.16,SE,135,0.0,1.0,99,0.00,,---,0.00,0.00,VWS V14.01,2013-10-09 14:30:00,
2013-10-09 07:35:00,42.7,42.4,30.16,SE,135,0.0,0.0,99,0.00,,---,0.00,2.00,VWS V14.01,2013-10-09 14:35:00,
2013-10-09 07:40:00,42.6,42.3,30.16,SE,135,0.0,0.0,99,0.00,,---,0.00,7.00,VWS V14.01,2013-10-09 14:40:00,
2013-10-09 07:45:00,42.5,42.2,30.16,ESE,112,1.0,3.0,99,0.00,,---,0.00,9.00,VWS V14.01,2013-10-09 14:45:00,
2013-10-09 07:50:00,42.5,42.2,30.16,East,90,0.0,2.0,99,0.00,,---,0.00,13.00,VWS V14.01,2013-10-09 14:50:00,
2013-10-09 07:55:00,42.5,42.2,30.16,East,90,0.0,2.0,99,0.00,,---,0.00,15.00,VWS V14.01,2013-10-09 14:55:00,
2013-10-09 08:00:00,42.3,42.0,30.16,East,90,0.0,1.0,99,0.00,,---,0.00,17.00,VWS V14.01,2013-10-09 15:00:00,
2013-10-09 08:05:00,42.4,42.1,30.16,East,90,0.0,1.0,99,0.00,,---,0.00,24.00,VWS V14.01,2013-10-09 15:05:00,
2013-10-09 08:10:00,42.6,42.3,30.16,East,90,0.0,0.0,99,0.00,,---,0.00,26.00,VWS V14.01,2013-10-09 15:10:00,
2013-10-09 08:15:00,42.6,42.3,30.16,East,90,0.0,0.0,99,0.00,,---,0.00,33.00,VWS V14.01,2013-10-09 15:15:00,
2013-10-09 08:20:00,42.5,42.2,30.16,East,90,0.0,2.0,99,0.00,,---,0.00,44.00,VWS V14.01,2013-10-09 15:20:00,
2013-10-09 08:25:00,42.4,42.1,30.17,East,90,0.0,1.0,99,0.00,,---,0.00,49.00,VWS V14.01,2013-10-09 15:25:00,
2013-10-09 08:30:00,42.4,42.1,30.16,ENE,68,0.0,2.0,99,0.00,,---,0.00,48.00,VWS V14.01,2013-10-09 15:30:00,
2013-10-09 08:35:00,42.5,42.2,30.16,ENE,68,0.0,0.0,99,0.00,,---,0.00,43.00,VWS V14.01,2013-10-09 15:35:00,
2013-10-09 08:40:00,42.4,42.1,30.16,ENE,68,0.0,2.0,99,0.00,,---,0.00,49.00,VWS V14.01,2013-10-09 15:40:00,
2013-10-09 08:45:00,42.4,42.1,30.17,ENE,68,0.0,1.0,99,0.00,,---,0.00,63.00,VWS V14.01,2013-10-09 15:45:00,
2013-10-09 08:50:00,42.3,42.0,30.17,ENE,68,0.0,2.0,99,0.00,,---,0.00,83.00,VWS V14.01,2013-10-09 15:50:00,
2013-10-09 08:55:00,42.1,41.8,30.16,SSW,202,2.0,4.0,99,0.00,,---,0.00,89.00,VWS V14.01,2013-10-09 15:55:00,
2013-10-09 09:00:00,41.8,41.5,30.16,SSW,202,2.0,5.0,99,0.00,,---,0.00,79.00,VWS V14.01,2013-10-09 16:00:00,
2013-10-09 09:05:00,41.6,41.3,30.16,SSW,202,3.0,6.0,99,0.00,,---,0.00,66.00,VWS V14.01,2013-10-09 16:05:00,
2013-10-09 09:10:00,41.5,41.2,30.16,South,180,3.0,5.0,99,0.00,,---,0.00,84.00,VWS V14.01,2013-10-09 16:10:00,
2013-10-09 09:15:00,41.4,41.1,30.16,SW,225,2.0,4.0,99,0.00,,---,0.00,88.00,VWS V14.01,2013-10-09 16:15:00,
2013-10-09 09:20:00,41.2,40.9,30.16,SSW,202,2.0,4.0,99,0.00,,---,0.00,126.00,VWS V14.01,2013-10-09 16:20:00,
2013-10-09 09:25:00,41.5,41.2,30.16,SW,225,2.0,5.0,99,0.00,,---,0.00,115.00,VWS V14.01,2013-10-09 16:25:00,
2013-10-09 09:30:00,41.4,41.1,30.16,SSW,202,3.0,5.0,99,0.00,,---,0.00,114.00,VWS V14.01,2013-10-09 16:30:00,
2013-10-09 09:35:00,41.7,41.4,30.16,South,180,2.0,5.0,99,0.00,,---,0.00,123.00,VWS V14.01,2013-10-09 16:35:00,
2013-10-09 09:40:00,41.6,41.3,30.16,South,180,2.0,4.0,99,0.00,,---,0.00,117.00,VWS V14.01,2013-10-09 16:40:00,
2013-10-09 09:45:00,41.8,41.5,30.16,South,180,1.0,4.0,99,0.00,,---,0.00,129.00,VWS V14.01,2013-10-09 16:45:00,
2013-10-09 09:50:00,42.0,41.7,30.16,South,180,1.0,3.0,99,0.00,,---,0.00,140.00,VWS V14.01,2013-10-09 16:50:00,
2013-10-09 09:55:00,42.3,42.0,30.16,SSW,202,0.0,1.0,99,0.00,,---,0.00,164.00,VWS V14.01,2013-10-09 16:55:00,
2013-10-09 10:00:00,42.3,42.3,30.16,SSW,202,0.0,2.0,100,0.00,,---,0.00,163.00,VWS V14.01,2013-10-09 17:00:00,
2013-10-09 10:05:00,42.5,42.5,30.15,SW,225,0.0,2.0,100,0.00,,---,0.00,180.00,VWS V14.01,2013-10-09 17:05:00,
2013-10-09 10:10:00,42.8,42.5,30.15,SW,225,0.0,1.0,99,0.00,,---,0.00,171.00,VWS V14.01,2013-10-09 17:10:00,
2013-10-09 10:15:00,42.8,42.5,30.15,SW,225,0.0,1.0,99,0.00,,---,0.00,147.00,VWS V14.01,2013-10-09 17:15:00,
2013-10-09 10:20:00,43.0,43.0,30.14,SW,225,0.0,0.0,100,0.00,,---,0.00,161.00,VWS V14.01,2013-10-09 17:20:00,
2013-10-09 10:25:00,43.6,43.3,30.14,SW,225,0.0,0.0,99,0.00,,---,0.00,179.00,VWS V14.01,2013-10-09 17:25:00,
2013-10-09 10:30:00,44.1,44.1,30.15,SW,225,0.0,1.0,100,0.00,,---,0.00,203.00,VWS V14.01,2013-10-09 17:30:00,
2013-10-09 10:35:00,44.6,44.3,30.15,SSW,202,1.0,3.0,99,0.00,,---,0.00,307.00,VWS V14.01,2013-10-09 17:35:00,
2013-10-09 10:40:00,45.5,45.5,30.15,WSW,248,0.0,2.0,100,0.00,,---,0.00,504.00,VWS V14.01,2013-10-09 17:40:00,
2013-10-09 10:45:00,46.3,46.0,30.15,West,270,0.0,3.0,99,0.00,,---,0.00,458.00,VWS V14.01,2013-10-09 17:45:00,
2013-10-09 10:50:00,47.2,46.9,30.15,NW,315,3.0,6.0,99,0.00,,---,0.00,368.00,VWS V14.01,2013-10-09 17:50:00,
2013-10-09 10:55:00,47.7,47.2,30.15,West,270,2.0,5.0,98,0.00,,---,0.00,446.00,VWS V14.01,2013-10-09 17:55:00,
2013-10-09 11:00:00,48.2,47.1,30.15,West,270,1.0,3.0,96,0.00,,---,0.00,462.00,VWS V14.01,2013-10-09 18:00:00,
2013-10-09 11:05:00,48.3,46.1,30.15,NW,315,2.0,5.0,92,0.00,,---,0.00,488.00,VWS V14.01,2013-10-09 18:05:00,
2013-10-09 11:10:00,48.8,46.3,30.15,NW,315,2.0,5.0,91,0.00,,---,0.00,392.00,VWS V14.01,2013-10-09 18:10:00,
2013-10-09 11:15:00,49.2,46.7,30.15,NW,315,1.0,3.0,91,0.00,,---,0.00,339.00,VWS V14.01,2013-10-09 18:15:00,
2013-10-09 11:20:00,49.4,46.9,30.15,West,270,2.0,5.0,91,0.00,,---,0.00,369.00,VWS V14.01,2013-10-09 18:20:00,
2013-10-09 11:25:00,49.5,46.7,30.15,WSW,248,3.0,6.0,90,0.00,,---,0.00,446.00,VWS V14.01,2013-10-09 18:25:00,
2013-10-09 11:30:00,49.3,46.2,30.15,SW,225,2.0,5.0,89,0.00,,---,0.00,402.00,VWS V14.01,2013-10-09 18:30:00,
2013-10-09 11:35:00,49.9,46.5,30.14,NW,315,2.0,5.0,88,0.00,,---,0.00,432.00,VWS V14.01,2013-10-09 18:35:00,
2013-10-09 11:40:00,50.0,46.6,30.14,NW,315,3.0,5.0,88,0.00,,---,0.00,489.00,VWS V14.01,2013-10-09 18:40:00,
2013-10-09 11:45:00,50.4,46.1,30.14,WNW,292,2.0,5.0,85,0.00,,---,0.00,540.00,VWS V14.01,2013-10-09 18:45:00,
2013-10-09 11:50:00,50.4,45.8,30.14,West,270,0.0,2.0,84,0.00,,---,0.00,375.00,VWS V14.01,2013-10-09 18:50:00,
2013-10-09 11:55:00,50.5,45.8,30.14,SW,225,2.0,4.0,84,0.00,,---,0.00,324.00,VWS V14.01,2013-10-09 18:55:00,
2013-10-09 12:00:00,50.5,45.5,30.13,SW,225,0.0,2.0,83,0.00,,---,0.00,337.00,VWS V14.01,2013-10-09 19:00:00,
2013-10-09 12:05:00,50.6,45.6,30.13,West,270,1.0,4.0,83,0.00,,---,0.00,327.00,VWS V14.01,2013-10-09 19:05:00,
2013-10-09 12:10:00,50.6,45.6,30.13,South,180,2.0,5.0,83,0.00,,---,0.00,357.00,VWS V14.01,2013-10-09 19:10:00,
2013-10-09 12:15:00,50.5,45.5,30.12,SSW,202,1.0,4.0,83,0.00,,---,0.00,370.00,VWS V14.01,2013-10-09 19:15:00,
2013-10-09 12:20:00,51.0,46.0,30.12,SSW,202,1.0,3.0,83,0.00,,---,0.00,394.00,VWS V14.01,2013-10-09 19:20:00,
2013-10-09 12:25:00,51.2,45.9,30.12,West,270,2.0,4.0,82,0.00,,---,0.00,357.00,VWS V14.01,2013-10-09 19:25:00,
2013-10-09 12:30:00,51.3,45.7,30.12,WNW,292,1.0,3.0,81,0.00,,---,0.00,344.00,VWS V14.01,2013-10-09 19:30:00,
2013-10-09 12:35:00,51.7,46.4,30.12,WNW,292,1.0,2.0,82,0.00,,---,0.00,349.00,VWS V14.01,2013-10-09 19:35:00,
2013-10-09 12:40:00,51.8,46.2,30.11,SW,225,1.0,4.0,81,0.01,,---,0.01,439.00,VWS V14.01,2013-10-09 19:40:00,
2013-10-09 12:45:00,51.8,46.2,30.11,SW,225,1.0,4.0,81,0.01,,---,0.01,491.00,VWS V14.01,2013-10-09 19:45:00,
2013-10-09 12:50:00,52.2,46.2,30.11,SW,225,0.0,1.0,80,0.01,,---,0.01,628.00,VWS V14.01,2013-10-09 19:50:00,
2013-10-09 12:55:00,52.7,46.7,30.10,SSW,202,0.0,2.0,80,0.01,,---,0.01,605.00,VWS V14.01,2013-10-09 19:55:00,
2013-10-09 13:00:00,53.1,46.1,30.10,South,180,2.0,5.0,77,0.01,,---,0.01,524.00,VWS V14.01,2013-10-09 20:00:00,
2013-10-09 13:05:00,53.2,46.5,30.10,South,180,3.0,5.0,78,0.01,,---,0.01,545.00,VWS V14.01,2013-10-09 20:05:00,
2013-10-09 13:10:00,53.3,46.3,30.10,SSW,202,2.0,4.0,77,0.01,,---,0.01,562.00,VWS V14.01,2013-10-09 20:10:00,
2013-10-09 13:15:00,53.1,46.1,30.10,South,180,2.0,4.0,77,0.01,,---,0.01,375.00,VWS V14.01,2013-10-09 20:15:00,
2013-10-09 13:20:00,53.4,46.4,30.09,SSW,202,1.0,3.0,77,0.01,,---,0.01,390.00,VWS V14.01,2013-10-09 20:20:00,
2013-10-09 13:25:00,54.1,46.4,30.09,SSE,158,1.0,3.0,75,0.01,,---,0.01,628.00,VWS V14.01,2013-10-09 20:25:00,
2013-10-09 13:30:00,54.6,46.8,30.09,WNW,292,0.0,2.0,75,0.01,,---,0.01,625.00,VWS V14.01,2013-10-09 20:30:00,
2013-10-09 13:35:00,54.5,46.0,30.09,South,180,2.0,5.0,73,0.01,,---,0.01,617.00,VWS V14.01,2013-10-09 20:35:00,
2013-10-09 13:40:00,54.5,45.3,30.09,SSW,202,3.0,7.0,71,0.01,,---,0.01,428.00,VWS V14.01,2013-10-09 20:40:00,
2013-10-09 13:45:00,55.0,47.2,30.09,SSE,158,2.0,5.0,75,0.00,,---,0.01,467.00,VWS V14.01,2013-10-09 20:45:00,
2013-10-09 13:50:00,54.6,46.1,30.08,West,270,1.0,4.0,73,0.00,,---,0.01,457.00,VWS V14.01,2013-10-09 20:50:00,
2013-10-09 13:55:00,54.9,46.4,30.08,West,270,3.0,7.0,73,0.00,,---,0.01,429.00,VWS V14.01,2013-10-09 20:55:00,
2013-10-09 14:00:00,55.0,46.2,30.08,WNW,292,3.0,6.0,72,0.00,,---,0.01,513.00,VWS V14.01,2013-10-09 21:00:00,
2013-10-09 14:05:00,55.2,47.4,30.08,West,270,3.0,6.0,75,0.00,,---,0.01,433.00,VWS V14.01,2013-10-09 21:05:00,
2013-10-09 14:10:00,55.0,46.2,30.08,NW,315,3.0,8.0,72,0.00,,---,0.01,372.00,VWS V14.01,2013-10-09 21:10:00,
2013-10-09 14:15:00,54.8,46.0,30.08,SSW,202,2.0,5.0,72,0.00,,---,0.01,398.00,VWS V14.01,2013-10-09 21:15:00,
2013-10-09 14:20:00,55.0,46.5,30.08,West,270,3.0,5.0,73,0.00,,---,0.01,372.00,VWS V14.01,2013-10-09 21:20:00,
2013-10-09 14:25:00,55.1,47.0,30.08,WNW,292,2.0,6.0,74,0.00,,---,0.01,304.00,VWS V14.01,2013-10-09 21:25:00,
2013-10-09 14:30:00,55.0,45.4,30.08,NW,315,2.0,5.0,70,0.00,,---,0.01,290.00,VWS V14.01,2013-10-09 21:30:00,
2013-10-09 14:35:00,54.9,44.9,30.08,NW,315,2.0,4.0,69,0.00,,---,0.01,322.00,VWS V14.01,2013-10-09 21:35:00,
2013-10-09 14:40:00,55.2,46.0,30.08,SW,225,1.0,5.0,71,0.00,,---,0.01,349.00,VWS V14.01,2013-10-09 21:40:00,
2013-10-09 14:45:00,55.1,45.5,30.07,WSW,248,3.0,6.0,70,0.00,,---,0.01,340.00,VWS V14.01,2013-10-09 21:45:00,
2013-10-09 14:50:00,55.3,46.8,30.07,West,270,1.0,3.0,73,0.00,,---,0.01,337.00,VWS V14.01,2013-10-09 21:50:00,
2013-10-09 14:55:00,55.2,46.7,30.07,WSW,248,2.0,6.0,73,0.00,,---,0.01,306.00,VWS V14.01,2013-10-09 21:55:00,
2013-10-09 15:00:00,55.1,46.2,30.07,West,270,2.0,4.0,72,0.00,,---,0.01,315.00,VWS V14.01,2013-10-09 22:00:00,
2013-10-09 15:05:00,55.3,47.9,30.07,West,270,2.0,3.0,76,0.00,,---,0.01,314.00,VWS V14.01,2013-10-09 22:05:00,
2013-10-09 15:10:00,55.1,46.2,30.07,West,270,2.0,4.0,72,0.00,,---,0.01,333.00,VWS V14.01,2013-10-09 22:10:00,
2013-10-09 15:15:00,55.1,46.2,30.07,NW,315,1.0,4.0,72,0.00,,---,0.01,338.00,VWS V14.01,2013-10-09 22:15:00,
2013-10-09 15:20:00,55.3,46.1,30.07,NW,315,0.0,1.0,71,0.00,,---,0.01,276.00,VWS V14.01,2013-10-09 22:20:00,
2013-10-09 15:25:00,55.1,45.9,30.06,SW,225,1.0,3.0,71,0.00,,---,0.01,212.00,VWS V14.01,2013-10-09 22:25:00,
2013-10-09 15:30:00,55.3,46.8,30.06,SSW,202,2.0,4.0,73,0.00,,---,0.01,313.00,VWS V14.01,2013-10-09 22:30:00,
2013-10-09 15:35:00,55.6,46.4,30.06,WSW,248,2.0,5.0,71,0.00,,---,0.01,415.00,VWS V14.01,2013-10-09 22:35:00,
2013-10-09 15:40:00,55.9,46.7,30.06,SSW,202,1.0,3.0,71,0.00,,---,0.01,400.00,VWS V14.01,2013-10-09 22:40:00,
2013-10-09 15:45:00,55.9,46.3,30.06,South,180,2.0,4.0,70,0.00,,---,0.01,430.00,VWS V14.01,2013-10-09 22:45:00,
2013-10-09 15:50:00,56.1,46.5,30.06,South,180,3.0,5.0,70,0.00,,---,0.01,427.00,VWS V14.01,2013-10-09 22:50:00,
2013-10-09 15:55:00,56.5,46.5,30.06,South,180,1.0,3.0,69,0.00,,---,0.01,338.00,VWS V14.01,2013-10-09 22:55:00,
2013-10-09 16:00:00,56.2,46.2,30.05,East,90,0.0,2.0,69,0.00,,---,0.01,167.00,VWS V14.01,2013-10-09 23:00:00,
2013-10-09 16:05:00,55.9,45.9,30.05,South,180,1.0,3.0,69,0.00,,---,0.01,176.00,VWS V14.01,2013-10-09 23:05:00,
2013-10-09 16:10:00,56.0,46.0,30.05,SSE,158,1.0,3.0,69,0.00,,---,0.01,236.00,VWS V14.01,2013-10-09 23:10:00,
2013-10-09 16:15:00,56.1,46.5,30.05,South,180,1.0,3.0,70,0.00,,---,0.01,219.00,VWS V14.01,2013-10-09 23:15:00,
2013-10-09 16:20:00,56.0,45.6,30.05,SSW,202,2.0,5.0,68,0.00,,---,0.01,210.00,VWS V14.01,2013-10-09 23:20:00,
2013-10-09 16:25:00,56.3,45.9,30.05,South,180,2.0,4.0,68,0.00,,---,0.01,278.00,VWS V14.01,2013-10-09 23:25:00,
2013-10-09 16:30:00,56.3,45.1,30.05,SSE,158,1.0,4.0,66,0.00,,---,0.01,286.00,VWS V14.01,2013-10-09 23:30:00,
2013-10-09 16:35:00,56.5,45.3,30.05,SW,225,2.0,4.0,66,0.00,,---,0.01,268.00,VWS V14.01,2013-10-09 23:35:00,
2013-10-09 16:40:00,56.4,45.6,30.05,SW,225,1.0,4.0,67,0.00,,---,0.01,249.00,VWS V14.01,2013-10-09 23:40:00,
2013-10-09 16:45:00,56.2,45.4,30.04,WSW,248,2.0,4.0,67,0.00,,---,0.01,193.00,VWS V14.01,2013-10-09 23:45:00,
2013-10-09 16:50:00,56.4,46.4,30.04,SSW,202,1.0,5.0,69,0.00,,---,0.01,188.00,VWS V14.01,2013-10-09 23:50:00,
2013-10-09 16:55:00,56.2,44.6,30.04,SSW,202,2.0,4.0,65,0.00,,---,0.01,202.00,VWS V14.01,2013-10-09 23:55:00,
2013-10-09 17:00:00,56.3,45.1,30.03,SSW,202,0.0,1.0,66,0.00,,---,0.01,65.00,VWS V14.01,2013-10-10 00:00:00,
2013-10-09 17:05:00,56.3,45.1,30.03,SW,225,2.0,4.0,66,0.00,,---,0.01,51.00,VWS V14.01,2013-10-10 00:05:00,
2013-10-09 17:10:00,56.3,45.5,30.03,SW,225,1.0,2.0,67,0.00,,---,0.01,50.00,VWS V14.01,2013-10-10 00:10:00,
2013-10-09 17:15:00,56.3,45.9,30.03,SW,225,1.0,3.0,68,0.00,,---,0.01,47.00,VWS V14.01,2013-10-10 00:15:00,
2013-10-09 17:20:00,55.9,47.0,30.03,SW,225,1.0,3.0,72,0.00,,---,0.01,47.00,VWS V14.01,2013-10-10 00:20:00,
2013-10-09 17:25:00,55.7,44.9,30.03,SW,225,2.0,4.0,67,0.00,,---,0.01,46.00,VWS V14.01,2013-10-10 00:25:00,
2013-10-09 17:30:00,55.5,45.9,30.03,SW,225,1.0,3.0,70,0.00,,---,0.01,47.00,VWS V14.01,2013-10-10 00:30:00,
2013-10-09 17:35:00,55.5,45.5,30.03,SW,225,1.0,3.0,69,0.00,,---,0.01,44.00,VWS V14.01,2013-10-10 00:35:00,
2013-10-09 17:40:00,55.2,44.8,30.03,SW,225,2.0,4.0,68,0.00,,---,0.01,39.00,VWS V14.01,2013-10-10 00:40:00,
2013-10-09 17:45:00,54.9,44.5,30.03,SW,225,1.0,2.0,68,0.00,,---,0.01,37.00,VWS V14.01,2013-10-10 00:45:00,
2013-10-09 17:50:00,54.5,44.9,30.03,SW,225,0.0,2.0,70,0.00,,---,0.01,35.00,VWS V14.01,2013-10-10 00:50:00,
2013-10-09 17:55:00,54.4,44.5,30.03,WSW,248,0.0,3.0,69,0.00,,---,0.01,32.00,VWS V14.01,2013-10-10 00:55:00,
2013-10-09 18:00:00,54.4,44.8,30.03,WSW,248,0.0,1.0,70,0.00,,---,0.01,31.00,VWS V14.01,2013-10-10 01:00:00,
2013-10-09 18:05:00,54.1,44.9,30.03,WSW,248,0.0,1.0,71,0.00,,---,0.01,20.00,VWS V14.01,2013-10-10 01:05:00,
2013-10-09 18:10:00,53.7,44.9,30.03,SW,225,0.0,2.0,72,0.00,,---,0.01,17.00,VWS V14.01,2013-10-10 01:10:00,
2013-10-09 18:15:00,53.4,45.0,30.02,SW,225,0.0,1.0,73,0.00,,---,0.01,13.00,VWS V14.01,2013-10-10 01:15:00,
2013-10-09 18:20:00,52.9,45.9,30.02,SW,225,0.0,0.0,77,0.00,,---,0.01,11.00,VWS V14.01,2013-10-10 01:20:00,
2013-10-09 18:25:00,52.3,46.0,30.02,SW,225,0.0,0.0,79,0.00,,---,0.01,9.00,VWS V14.01,2013-10-10 01:25:00,
2013-10-09 18:30:00,51.7,45.1,30.03,SW,225,0.0,0.0,78,0.00,,---,0.01,6.00,VWS V14.01,2013-10-10 01:30:00,
2013-10-09 18:35:00,51.6,45.3,30.03,SSW,202,0.0,1.0,79,0.00,,---,0.01,0.00,VWS V14.01,2013-10-10 01:35:00,
2013-10-09 18:40:00,51.4,45.1,30.02,SSW,202,0.0,1.0,79,0.00,,---,0.01,0.00,VWS V14.01,2013-10-10 01:40:00,
2013-10-09 18:45:00,51.2,44.9,30.02,SSW,202,0.0,0.0,79,0.00,,---,0.01,0.00,VWS V14.01,2013-10-10 01:45:00,
2013-10-09 18:50:00,50.8,44.9,30.02,SSW,202,0.0,0.0,80,0.00,,---,0.01,0.00,VWS V14.01,2013-10-10 01:50:00,
2013-10-09 18:55:00,50.6,45.3,30.02,SSW,202,0.0,1.0,82,0.00,,---,0.01,0.00,VWS V14.01,2013-10-10 01:55:00,
2013-10-09 19:00:00,50.3,45.0,30.02,SSW,202,0.0,0.0,82,0.00,,---,0.01,0.00,VWS V14.01,2013-10-10 02:00:00,
2013-10-09 19:05:00,49.7,45.4,30.02,SSW,202,0.0,0.0,85,0.00,,---,0.01,0.00,VWS V14.01,2013-10-10 02:05:00,
2013-10-09 19:10:00,49.4,45.4,30.02,SSW,202,0.0,0.0,86,0.00,,---,0.01,0.00,VWS V14.01,2013-10-10 02:10:00,
2013-10-09 19:15:00,49.2,45.2,30.02,SSW,202,0.0,1.0,86,0.00,,---,0.01,0.00,VWS V14.01,2013-10-10 02:15:00,
2013-10-09 19:20:00,49.1,45.1,30.02,SSW,202,0.0,0.0,86,0.00,,---,0.01,0.00,VWS V14.01,2013-10-10 02:20:00,
2013-10-09 19:25:00,49.0,45.0,30.02,SSW,202,0.0,0.0,86,0.00,,---,0.01,0.00,VWS V14.01,2013-10-10 02:25:00,
2013-10-09 19:30:00,48.8,44.8,30.02,SW,225,0.0,1.0,86,0.00,,---,0.01,0.00,VWS V14.01,2013-10-10 02:30:00,
2013-10-09 19:35:00,48.7,44.7,30.02,SW,225,0.0,0.0,86,0.00,,---,0.01,0.00,VWS V14.01,2013-10-10 02:35:00,
2013-10-09 19:40:00,48.7,45.0,30.02,South,180,0.0,1.0,87,0.00,,---,0.01,0.00,VWS V14.01,2013-10-10 02:40:00,
2013-10-09 19:45:00,48.9,44.9,30.02,South,180,0.0,1.0,86,0.00,,---,0.01,0.00,VWS V14.01,2013-10-10 02:45:00,
2013-10-09 19:50:00,48.9,44.9,30.02,South,180,0.0,1.0,86,0.00,,---,0.01,0.00,VWS V14.01,2013-10-10 02:50:00,
2013-10-09 19:55:00,48.4,44.7,30.02,South,180,0.0,0.0,87,0.00,,---,0.01,0.00,VWS V14.01,2013-10-10 02:55:00,
2013-10-09 20:00:00,48.1,44.7,30.02,South,180,0.0,0.0,88,0.00,,---,0.01,0.00,VWS V14.01,2013-10-10 03:00:00,
2013-10-09 20:05:00,48.2,44.8,30.02,South,180,0.0,1.0,88,0.00,,---,0.01,0.00,VWS V14.01,2013-10-10 03:05:00,
2013-10-09 20:10:00,48.3,44.9,30.02,South,180,0.0,1.0,88,0.00,,---,0.01,0.00,VWS V14.01,2013-10-10 03:10:00,
2013-10-09 20:15:00,48.1,45.0,30.02,South,180,0.0,0.0,89,0.00,,---,0.01,0.00,VWS V14.01,2013-10-10 03:15:00,
2013-10-09 20:20:00,48.2,45.1,30.02,South,180,0.0,0.0,89,0.00,,---,0.01,0.00,VWS V14.01,2013-10-10 03:20:00,
2013-10-09 20:25:00,48.3,45.2,30.02,South,180,0.0,0.0,89,0.00,,---,0.01,0.00,VWS V14.01,2013-10-10 03:25:00,
2013-10-09 20:30:00,48.4,45.3,30.02,South,180,0.0,1.0,89,0.00,,---,0.01,0.00,VWS V14.01,2013-10-10 03:30:00,
2013-10-09 20:35:00,48.3,45.2,30.02,South,180,0.0,1.0,89,0.00,,---,0.01,0.00,VWS V14.01,2013-10-10 03:35:00,
2013-10-09 20:40:00,48.3,45.2,30.02,SSE,158,0.0,2.0,89,0.00,,---,0.01,0.00,VWS V14.01,2013-10-10 03:40:00,
2013-10-09 20:45:00,48.2,45.4,30.02,SE,135,0.0,1.0,90,0.00,,---,0.01,0.00,VWS V14.01,2013-10-10 03:45:00,
2013-10-09 20:50:00,48.4,45.3,30.02,SE,135,0.0,1.0,89,0.00,,---,0.01,0.00,VWS V14.01,2013-10-10 03:50:00,
2013-10-09 20:55:00,48.3,45.2,30.02,SE,135,0.0,1.0,89,0.00,,---,0.01,0.00,VWS V14.01,2013-10-10 03:55:00,
2013-10-09 21:00:00,48.3,45.5,30.01,SE,135,0.0,1.0,90,0.00,,---,0.01,0.00,VWS V14.01,2013-10-10 04:00:00,
2013-10-09 21:05:00,48.7,45.9,30.01,ESE,112,0.0,3.0,90,0.00,,---,0.01,0.00,VWS V14.01,2013-10-10 04:05:00,
2013-10-09 21:10:00,48.8,45.7,30.01,East,90,0.0,2.0,89,0.00,,---,0.01,0.00,VWS V14.01,2013-10-10 04:10:00,
2013-10-09 21:15:00,48.3,45.5,30.01,East,90,0.0,0.0,90,0.00,,---,0.01,0.00,VWS V14.01,2013-10-10 04:15:00,
2013-10-09 21:20:00,48.6,46.1,30.01,East,90,1.0,2.0,91,0.00,,---,0.01,0.00,VWS V14.01,2013-10-10 04:20:00,
2013-10-09 21:25:00,48.8,46.0,30.01,East,90,0.0,2.0,90,0.00,,---,0.01,0.00,VWS V14.01,2013-10-10 04:25:00,
2013-10-09 21:30:00,48.7,45.9,30.01,East,90,0.0,2.0,90,0.00,,---,0.01,0.00,VWS V14.01,2013-10-10 04:30:00,
2013-10-09 21:35:00,48.5,46.0,30.01,East,90,0.0,0.0,91,0.00,,---,0.01,0.00,VWS V14.01,2013-10-10 04:35:00,
2013-10-09 21:40:00,48.3,45.8,30.01,East,90,0.0,0.0,91,0.00,,---,0.01,0.00,VWS V14.01,2013-10-10 04:40:00,
2013-10-09 21:45:00,48.2,46.0,30.01,East,90,0.0,0.0,92,0.00,,---,0.01,0.00,VWS V14.01,2013-10-10 04:45:00,
2013-10-09 21:50:00,48.4,45.9,30.01,East,90,0.0,0.0,91,0.00,,---,0.01,0.00,VWS V14.01,2013-10-10 04:50:00,
2013-10-09 21:55:00,48.6,46.1,30.01,East,90,0.0,0.0,91,0.00,,---,0.01,0.00,VWS V14.01,2013-10-10 04:55:00,
2013-10-09 22:00:00,48.6,46.1,30.01,East,90,0.0,0.0,91,0.00,,---,0.01,0.00,VWS V14.01,2013-10-10 05:00:00,
2013-10-09 22:05:00,48.6,46.1,30.01,East,90,0.0,0.0,91,0.00,,---,0.01,0.00,VWS V14.01,2013-10-10 05:05:00,
2013-10-09 22:10:00,48.4,46.2,30.01,East,90,0.0,0.0,92,0.00,,---,0.01,0.00,VWS V14.01,2013-10-10 05:10:00,
2013-10-09 22:15:00,48.3,46.1,30.00,East,90,0.0,0.0,92,0.00,,---,0.01,0.00,VWS V14.01,2013-10-10 05:15:00,
2013-10-09 22:20:00,48.5,46.3,30.00,East,90,0.0,1.0,92,0.00,,---,0.01,0.00,VWS V14.01,2013-10-10 05:20:00,
2013-10-09 22:25:00,48.6,46.1,30.00,East,90,0.0,1.0,91,0.00,,---,0.01,0.00,VWS V14.01,2013-10-10 05:25:00,
2013-10-09 22:30:00,48.6,46.1,30.00,East,90,0.0,3.0,91,0.00,,---,0.01,0.00,VWS V14.01,2013-10-10 05:30:00,
2013-10-09 22:35:00,48.5,46.3,30.00,East,90,0.0,0.0,92,0.00,,---,0.01,0.00,VWS V14.01,2013-10-10 05:35:00,
2013-10-09 22:40:00,48.6,46.4,30.00,East,90,0.0,1.0,92,0.00,,---,0.01,0.00,VWS V14.01,2013-10-10 05:40:00,
2013-10-09 22:45:00,48.7,46.5,29.99,East,90,0.0,2.0,92,0.00,,---,0.01,0.00,VWS V14.01,2013-10-10 05:45:00,
2013-10-09 22:50:00,48.7,46.5,29.99,East,90,0.0,2.0,92,0.00,,---,0.01,0.00,VWS V14.01,2013-10-10 05:50:00,
2013-10-09 22:55:00,48.5,46.3,30.00,East,90,0.0,1.0,92,0.00,,---,0.01,0.00,VWS V14.01,2013-10-10 05:55:00,
2013-10-09 23:00:00,48.5,46.3,30.00,East,90,0.0,1.0,92,0.00,,---,0.01,0.00,VWS V14.01,2013-10-10 06:00:00,
2013-10-09 23:05:00,48.5,46.3,29.99,East,90,0.0,0.0,92,0.00,,---,0.01,0.00,VWS V14.01,2013-10-10 06:05:00,
2013-10-09 23:10:00,48.3,46.1,30.00,East,90,0.0,0.0,92,0.00,,---,0.01,0.00,VWS V14.01,2013-10-10 06:10:00,
2013-10-09 23:15:00,48.1,46.2,29.99,East,90,0.0,0.0,93,0.00,,---,0.01,0.00,VWS V14.01,2013-10-10 06:15:00,
2013-10-09 23:20:00,48.2,46.3,29.99,East,90,0.0,0.0,93,0.00,,---,0.01,0.00,VWS V14.01,2013-10-10 06:20:00,
2013-10-09 23:25:00,48.2,46.3,29.99,East,90,0.0,0.0,93,0.00,,---,0.01,0.00,VWS V14.01,2013-10-10 06:25:00,
2013-10-09 23:30:00,48.1,46.2,30.00,East,90,0.0,0.0,93,0.00,,---,0.01,0.00,VWS V14.01,2013-10-10 06:30:00,
2013-10-09 23:35:00,48.0,46.1,29.99,East,90,0.0,0.0,93,0.00,,---,0.01,0.00,VWS V14.01,2013-10-10 06:35:00,
2013-10-09 23:40:00,47.8,46.2,29.98,East,90,0.0,0.0,94,0.00,,---,0.01,0.00,VWS V14.01,2013-10-10 06:40:00,
2013-10-09 23:45:00,47.8,46.2,29.98,East,90,0.0,0.0,94,0.00,,---,0.01,0.00,VWS V14.01,2013-10-10 06:45:00,
2013-10-09 23:50:00,47.8,46.2,29.98,East,90,0.0,0.0,94,0.00,,---,0.01,0.00,VWS V14.01,2013-10-10 06:50:00,
2013-10-09 23:55:00,47.6,45.7,29.99,East,90,0.0,0.0,93,0.00,,---,0.01,0.00,VWS V14.01,2013-10-10 06:55:00,